D52KF EDDF-EGKK
Flight info
| Callsign | D52KF |
|---|---|
| Flight time | N/A |
| Altitude | 36000 |
| Route | OBOKA3M/25C OBOKA Z29 TORNU DCT BREDA DCT VICOT DCT GALSO Q63 ARREK Y4 TEBRA DCT ABTUM DCT ARNUN DCT LARCK |
| Aircraft | CL60/M-SBDE1E2E3FGHIJ4J5J7M3RWXYZ/LB1V1D1 |
Departure
| Time | 2026-05-05 10:53 |
|---|---|
| Airport | Frankfurt Main Airport (EDDF) |
Arrival
| Time | N/A |
|---|---|
| Airport | London Gatwick Airport (EGKK) |
| Time | Latitude | Longitude | Altitude | Speed | Heading |
|---|---|---|---|---|---|
| 2026-05-05 10:31 | 50.02945 | 8.55481 | 364 ft | 0 kts | 160° |
| 2026-05-05 10:44 | 50.02935 | 8.55487 | 364 ft | 3 kts | 160° |
| 2026-05-05 10:45 | 50.02933 | 8.55488 | 364 ft | 0 kts | 160° |
| 2026-05-05 10:45 | 50.02931 | 8.55489 | 364 ft | 2 kts | 156° |
| 2026-05-05 10:45 | 50.02929 | 8.55543 | 364 ft | 8 kts | 70° |
| 2026-05-05 10:46 | 50.02955 | 8.55650 | 364 ft | 11 kts | 65° |
| 2026-05-05 10:46 | 50.03033 | 8.55643 | 364 ft | 14 kts | 341° |
| 2026-05-05 10:46 | 50.03070 | 8.55645 | 364 ft | 0 kts | 99° |
| 2026-05-05 10:46 | 50.03049 | 8.55659 | 364 ft | 6 kts | 170° |
| 2026-05-05 10:47 | 50.03041 | 8.55743 | 364 ft | 12 kts | 70° |
| 2026-05-05 10:47 | 50.03078 | 8.55896 | 364 ft | 16 kts | 70° |
| 2026-05-05 10:47 | 50.03122 | 8.56081 | 364 ft | 19 kts | 70° |
| 2026-05-05 10:47 | 50.03170 | 8.56290 | 364 ft | 21 kts | 71° |
| 2026-05-05 10:48 | 50.03221 | 8.56506 | 364 ft | 17 kts | 70° |
| 2026-05-05 10:48 | 50.03257 | 8.56664 | 364 ft | 10 kts | 71° |
| 2026-05-05 10:48 | 50.03275 | 8.56738 | 364 ft | 3 kts | 70° |
| 2026-05-05 10:48 | 50.03279 | 8.56754 | 364 ft | 7 kts | 70° |
| 2026-05-05 10:49 | 50.03322 | 8.56941 | 364 ft | 21 kts | 71° |
| 2026-05-05 10:49 | 50.03366 | 8.57145 | 364 ft | 12 kts | 66° |
| 2026-05-05 10:49 | 50.03444 | 8.57196 | 364 ft | 14 kts | 7° |
| 2026-05-05 10:49 | 50.03500 | 8.57337 | 364 ft | 17 kts | 70° |
| 2026-05-05 10:50 | 50.03546 | 8.57530 | 364 ft | 20 kts | 70° |
| 2026-05-05 10:50 | 50.03597 | 8.57740 | 364 ft | 21 kts | 70° |
| 2026-05-05 10:50 | 50.03638 | 8.57913 | 364 ft | 14 kts | 70° |
| 2026-05-05 10:50 | 50.03692 | 8.58048 | 365 ft | 14 kts | 12° |
| 2026-05-05 10:51 | 50.03798 | 8.57998 | 365 ft | 17 kts | 340° |
| 2026-05-05 10:51 | 50.03918 | 8.57929 | 365 ft | 18 kts | 339° |
| 2026-05-05 10:51 | 50.04044 | 8.57855 | 365 ft | 20 kts | 340° |
| 2026-05-05 10:51 | 50.04181 | 8.57775 | 365 ft | 20 kts | 340° |
| 2026-05-05 10:52 | 50.04268 | 8.57702 | 365 ft | 10 kts | 289° |
| 2026-05-05 10:52 | 50.04232 | 8.57519 | 365 ft | 43 kts | 250° |
| 2026-05-05 10:52 | 50.03999 | 8.56549 | 365 ft | 143 kts | 250° |
| 2026-05-05 10:52 | 50.03591 | 8.54885 | 903 ft | 181 kts | 249° |
| 2026-05-05 10:53 | 50.03112 | 8.52973 | 1879 ft | 203 kts | 250° |
| 2026-05-05 10:53 | 50.02628 | 8.50921 | 2816 ft | 206 kts | 250° |
| 2026-05-05 10:53 | 50.01865 | 8.49067 | 3729 ft | 211 kts | 217° |
| 2026-05-05 10:53 | 50.00496 | 8.48219 | 4686 ft | 216 kts | 194° |
| 2026-05-05 10:54 | 49.99052 | 8.47694 | 5677 ft | 216 kts | 194° |
| 2026-05-05 10:54 | 49.97587 | 8.47145 | 6596 ft | 226 kts | 194° |
| 2026-05-05 10:54 | 49.96072 | 8.46557 | 7993 ft | 227 kts | 194° |
| 2026-05-05 10:54 | 49.94538 | 8.45944 | 9101 ft | 241 kts | 194° |
| 2026-05-05 10:55 | 49.92866 | 8.45254 | 10189 ft | 257 kts | 196° |
| 2026-05-05 10:55 | 49.91265 | 8.43976 | 11447 ft | 266 kts | 221° |
| 2026-05-05 10:55 | 49.90118 | 8.41686 | 12326 ft | 281 kts | 237° |
| 2026-05-05 10:55 | 49.89131 | 8.39021 | 12719 ft | 281 kts | 244° |
| 2026-05-05 10:56 | 49.88620 | 8.36083 | 12860 ft | 285 kts | 266° |
| 2026-05-05 10:56 | 49.88716 | 8.32857 | 12843 ft | 317 kts | 272° |
| 2026-05-05 10:56 | 49.88921 | 8.29302 | 12841 ft | 338 kts | 275° |
| 2026-05-05 10:56 | 49.89572 | 8.25765 | 12857 ft | 343 kts | 295° |
| 2026-05-05 10:57 | 49.90906 | 8.22669 | 12838 ft | 344 kts | 306° |
| 2026-05-05 10:57 | 49.92358 | 8.19659 | 12851 ft | 344 kts | 305° |
| 2026-05-05 10:57 | 49.93788 | 8.16693 | 12861 ft | 345 kts | 307° |
| 2026-05-05 10:57 | 49.95526 | 8.14037 | 12834 ft | 346 kts | 319° |
| 2026-05-05 10:58 | 49.97360 | 8.11624 | 12841 ft | 345 kts | 319° |
| 2026-05-05 10:58 | 49.99226 | 8.09147 | 13086 ft | 364 kts | 319° |
| 2026-05-05 10:58 | 50.01172 | 8.06560 | 14327 ft | 366 kts | 319° |
| 2026-05-05 10:58 | 50.03075 | 8.04023 | 15605 ft | 365 kts | 317° |
| 2026-05-05 10:59 | 50.04986 | 8.01472 | 16691 ft | 370 kts | 318° |
| 2026-05-05 10:59 | 50.06945 | 7.98854 | 17686 ft | 375 kts | 317° |
| 2026-05-05 10:59 | 50.08932 | 7.96191 | 18637 ft | 381 kts | 317° |
| 2026-05-05 10:59 | 50.10945 | 7.93491 | 19582 ft | 385 kts | 317° |
| 2026-05-05 11:00 | 50.12990 | 7.90744 | 20474 ft | 390 kts | 317° |
| 2026-05-05 11:00 | 50.15061 | 7.87958 | 21363 ft | 394 kts | 317° |
| 2026-05-05 11:00 | 50.17165 | 7.85123 | 22174 ft | 399 kts | 317° |
| 2026-05-05 11:00 | 50.19261 | 7.82295 | 22986 ft | 403 kts | 317° |
| 2026-05-05 11:01 | 50.21416 | 7.79383 | 23807 ft | 406 kts | 317° |
| 2026-05-05 11:01 | 50.23561 | 7.76481 | 24553 ft | 411 kts | 317° |
| 2026-05-05 11:01 | 50.25838 | 7.73723 | 25285 ft | 419 kts | 327° |
| 2026-05-05 11:01 | 50.28508 | 7.71699 | 25977 ft | 426 kts | 335° |
| 2026-05-05 11:02 | 50.31250 | 7.69846 | 26599 ft | 431 kts | 335° |
| 2026-05-05 11:02 | 50.34021 | 7.67960 | 27232 ft | 436 kts | 334° |
| 2026-05-05 11:02 | 50.36790 | 7.66069 | 27826 ft | 440 kts | 334° |
| 2026-05-05 11:02 | 50.39622 | 7.64132 | 28424 ft | 443 kts | 334° |
| 2026-05-05 11:03 | 50.42463 | 7.62186 | 28951 ft | 448 kts | 334° |
| 2026-05-05 11:03 | 50.45375 | 7.60187 | 29475 ft | 452 kts | 334° |
| 2026-05-05 11:03 | 50.48280 | 7.58191 | 30050 ft | 454 kts | 333° |
| 2026-05-05 11:03 | 50.51203 | 7.56177 | 30425 ft | 460 kts | 333° |
| 2026-05-05 11:04 | 50.54179 | 7.54122 | 30795 ft | 465 kts | 333° |
| 2026-05-05 11:04 | 50.57052 | 7.51795 | 31311 ft | 461 kts | 324° |
| 2026-05-05 11:04 | 50.59759 | 7.49033 | 31746 ft | 463 kts | 323° |
| 2026-05-05 11:04 | 50.62455 | 7.46265 | 32138 ft | 465 kts | 323° |
| 2026-05-05 11:05 | 50.65210 | 7.43436 | 32476 ft | 468 kts | 323° |
| 2026-05-05 11:05 | 50.67972 | 7.40599 | 32913 ft | 468 kts | 323° |
| 2026-05-05 11:05 | 50.70634 | 7.37637 | 33400 ft | 463 kts | 317° |
| 2026-05-05 11:05 | 50.73024 | 7.34263 | 33909 ft | 455 kts | 309° |
| 2026-05-05 11:06 | 50.75083 | 7.30552 | 34464 ft | 447 kts | 301° |
| 2026-05-05 11:06 | 50.76841 | 7.26468 | 34961 ft | 439 kts | 294° |
| 2026-05-05 11:06 | 50.78266 | 7.22279 | 35281 ft | 435 kts | 291° |
| 2026-05-05 11:06 | 50.79663 | 7.17993 | 35581 ft | 435 kts | 291° |
| 2026-05-05 11:07 | 50.81047 | 7.13747 | 35792 ft | 437 kts | 291° |
| 2026-05-05 11:07 | 50.83880 | 7.05018 | 35856 ft | 447 kts | 292° |
| 2026-05-05 11:08 | 50.86728 | 6.96213 | 35860 ft | 451 kts | 292° |
| 2026-05-05 11:08 | 50.89585 | 6.87356 | 35861 ft | 449 kts | 292° |